Time;durP1;ratioP1;P1;durP2;ratioP2;P2;SDS_P1;SDS_P2;PMS_P1;PMS_P2;Temp;Humidity;BMP_temperature;BMP_pressure;BME280_temperature;BME280_humidity;BME280_pressure;Samples;Min_cycle;Max_cycle;Signal;HPM_P1;HPM_P2
2022/01/31 00:00:31;;;;;;;56.40;33.97;;;-1.90;99.90;;;;;;5095030;28;20051;-66
2022/01/31 00:02:57;;;;;;;49.93;30.20;;;-1.90;99.90;;;;;;5095150;28;20467;-66
2022/01/31 00:05:23;;;;;;;53.57;32.27;;;-1.90;99.90;;;;;;5095005;28;20027;-66
2022/01/31 00:07:49;;;;;;;48.77;29.30;;;-2.00;99.90;;;;;;5113253;28;20019;-65
2022/01/31 00:10:25;;;;;;;53.30;30.13;;;-2.10;99.90;;;;;;5113204;28;20032;-66
2022/01/31 00:13:01;;;;;;;51.97;29.87;;;-2.10;99.90;;;;;;5095205;28;20015;-65
2022/01/31 00:15:28;;;;;;;58.17;30.50;;;-2.10;99.90;;;;;;5091388;28;20044;-66
2022/01/31 00:17:54;;;;;;;53.40;29.87;;;-2.10;99.90;;;;;;5093071;28;20017;-66
2022/01/31 00:20:20;;;;;;;50.73;28.90;;;-2.10;99.90;;;;;;5091472;28;20364;-66
2022/01/31 00:22:47;;;;;;;56.20;33.23;;;-2.20;99.90;;;;;;5091454;28;20024;-66
2022/01/31 00:25:14;;;;;;;52.30;31.07;;;-2.20;99.90;;;;;;5091334;28;20486;-66
2022/01/31 00:27:40;;;;;;;54.87;32.33;;;-2.20;99.90;;;;;;5092731;28;20146;-66
2022/01/31 00:30:07;;;;;;;52.47;31.37;;;-2.30;99.90;;;;;;5092997;28;20419;-65
2022/01/31 00:32:35;;;;;;;59.37;34.70;;;-2.30;99.90;;;;;;5091338;28;20020;-65
2022/01/31 00:35:02;;;;;;;54.90;31.90;;;-2.40;99.90;;;;;;5094695;28;20024;-66
2022/01/31 00:37:28;;;;;;;56.83;33.70;;;-2.40;99.90;;;;;;5097268;28;20028;-66
2022/01/31 00:39:54;;;;;;;55.80;32.80;;;-2.40;99.90;;;;;;5095569;28;20114;-66
2022/01/31 00:42:20;;;;;;;60.43;34.27;;;-2.50;99.90;;;;;;5086947;28;20024;-66
2022/01/31 00:44:52;;;;;;;60.63;36.30;;;-2.30;99.90;;;;;;5086834;28;20501;-66
2022/01/31 00:47:24;;;;;;;76.23;40.57;;;-2.30;99.90;;;;;;5081647;28;20021;-66
2022/01/31 00:49:55;;;;;;;81.07;42.20;;;-2.20;99.90;;;;;;5094900;28;20050;-66
2022/01/31 00:52:21;;;;;;;89.50;44.20;;;-2.20;99.90;;;;;;5086478;28;20044;-66
2022/01/31 00:54:47;;;;;;;99.13;48.47;;;-2.10;99.90;;;;;;5080732;28;20021;-66
2022/01/31 00:57:14;;;;;;;104.07;49.90;;;-2.00;99.90;;;;;;5075343;28;20103;-66
2022/01/31 00:59:40;;;;;;;100.73;51.53;;;-2.00;99.90;;;;;;5076162;28;20020;-65
2022/01/31 01:02:06;;;;;;;100.47;48.10;;;-2.10;99.90;;;;;;5076102;28;20025;-65
2022/01/31 01:04:32;;;;;;;113.77;53.93;;;-2.10;99.90;;;;;;5089071;28;20031;-66
2022/01/31 01:06:58;;;;;;;122.23;56.17;;;-2.00;99.90;;;;;;5092121;28;20103;-66
2022/01/31 01:09:24;;;;;;;110.50;51.53;;;-2.00;99.90;;;;;;5075388;28;20441;-65
2022/01/31 01:11:51;;;;;;;98.43;48.97;;;-2.00;99.90;;;;;;5092845;28;20056;-65
2022/01/31 01:14:17;;;;;;;118.90;54.23;;;-2.10;99.90;;;;;;5087771;28;20365;-66
2022/01/31 01:16:43;;;;;;;117.13;53.97;;;-2.00;99.90;;;;;;5097744;28;20047;-65
2022/01/31 01:19:09;;;;;;;123.00;56.07;;;-2.10;99.90;;;;;;5095421;28;20028;-65
2022/01/31 01:21:35;;;;;;;114.17;51.60;;;-2.20;99.90;;;;;;5097457;28;20035;-67
2022/01/31 01:24:01;;;;;;;115.07;51.10;;;-2.20;99.90;;;;;;5116501;28;20031;-67
2022/01/31 01:26:27;;;;;;;122.20;52.13;;;-2.20;99.90;;;;;;5102268;28;20039;-66
2022/01/31 01:28:53;;;;;;;127.43;54.23;;;-2.20;99.90;;;;;;5095876;28;20099;-66
2022/01/31 01:31:19;;;;;;;132.37;54.53;;;-2.30;99.90;;;;;;5077619;28;20113;-66
2022/01/31 01:33:49;;;;;;;120.90;50.90;;;-2.30;99.90;;;;;;5088239;28;20047;-67
2022/01/31 01:36:15;;;;;;;141.73;56.10;;;-2.30;99.90;;;;;;5110985;28;20036;-66
2022/01/31 01:38:41;;;;;;;130.30;53.20;;;-2.30;99.90;;;;;;5115690;28;20028;-66
2022/01/31 01:41:07;;;;;;;133.30;53.50;;;-2.50;99.90;;;;;;5115330;28;20028;-66
2022/01/31 01:43:33;;;;;;;136.40;54.57;;;-2.50;99.90;;;;;;5097314;28;20130;-66
2022/01/31 01:46:00;;;;;;;133.33;53.70;;;-2.40;99.90;;;;;;5103002;28;20031;-67
2022/01/31 01:48:26;;;;;;;133.70;53.13;;;-2.50;99.90;;;;;;5109834;28;20111;-66
2022/01/31 01:50:52;;;;;;;130.13;53.73;;;-2.40;99.90;;;;;;5096556;28;20035;-66
2022/01/31 01:53:19;;;;;;;130.20;53.30;;;-2.40;99.90;;;;;;5095703;28;20028;-66
2022/01/31 01:55:46;;;;;;;147.97;57.20;;;-2.40;99.90;;;;;;5110255;28;20042;-67
2022/01/31 01:58:18;;;;;;;135.90;52.63;;;-2.50;99.90;;;;;;5090197;28;20035;-66
2022/01/31 02:01:18;;;;;;;118.87;49.90;;;-2.50;99.90;;;;;;5087924;28;20032;-66
2022/01/31 02:03:39;;;;;;;128.90;52.50;;;-2.50;99.90;;;;;;5105660;28;20042;-65
2022/01/31 02:06:07;;;;;;;124.93;49.53;;;-2.40;99.90;;;;;;5110685;28;20032;-66
2022/01/31 02:08:44;;;;;;;117.13;48.90;;;-2.50;99.90;;;;;;5111117;28;20073;-67
2022/01/31 02:11:12;;;;;;;106.97;45.43;;;-2.40;99.90;;;;;;5094170;28;20027;-66
2022/01/31 02:13:38;;;;;;;109.93;43.13;;;-2.40;99.90;;;;;;5115272;28;20065;-66
2022/01/31 02:16:06;;;;;;;106.40;42.93;;;-2.50;99.90;;;;;;5089751;28;20395;-66
2022/01/31 02:18:33;;;;;;;106.87;43.57;;;-2.60;99.90;;;;;;5113988;28;20039;-66
2022/01/31 02:21:01;;;;;;;128.53;48.47;;;-2.60;99.90;;;;;;5096257;28;20034;-66
2022/01/31 02:23:28;;;;;;;143.57;54.47;;;-2.70;99.90;;;;;;5115137;28;20039;-68
2022/01/31 02:25:58;;;;;;;141.83;53.10;;;-2.70;99.90;;;;;;5113963;28;20380;-66
2022/01/31 02:28:27;;;;;;;131.40;50.63;;;-2.80;99.90;;;;;;5095848;28;20489;-66
2022/01/31 02:30:54;;;;;;;119.80;47.87;;;-2.80;99.90;;;;;;5095708;28;20439;-67
2022/01/31 02:33:20;;;;;;;124.80;46.90;;;-3.00;99.90;;;;;;5113599;28;20019;-67
2022/01/31 02:35:48;;;;;;;122.27;47.47;;;-2.90;99.90;;;;;;5106018;28;20038;-66
2022/01/31 02:38:15;;;;;;;122.63;47.10;;;-2.90;99.90;;;;;;5105006;28;20106;-67
2022/01/31 02:40:42;;;;;;;163.73;55.00;;;-2.90;99.90;;;;;;5106062;28;20034;-67
2022/01/31 02:43:08;;;;;;;133.37;51.17;;;-2.90;99.90;;;;;;5104243;28;20075;-65
2022/01/31 02:45:34;;;;;;;112.93;46.30;;;-2.70;99.90;;;;;;5110051;28;20031;-66
2022/01/31 02:48:02;;;;;;;112.10;47.37;;;-2.80;99.90;;;;;;5111627;28;20024;-68
2022/01/31 02:50:28;;;;;;;109.30;44.17;;;-2.80;99.90;;;;;;5111790;28;20116;-64
2022/01/31 02:53:31;;;;;;;137.07;44.60;;;-2.80;99.90;;;;;;5111784;28;20028;-66
2022/01/31 02:55:47;;;;;;;104.70;44.57;;;-2.80;99.90;;;;;;5108159;28;20039;-66
2022/01/31 02:58:14;;;;;;;124.73;49.43;;;-2.90;99.90;;;;;;5088025;28;20177;-66
2022/01/31 03:00:41;;;;;;;124.67;49.77;;;-2.90;99.90;;;;;;5112327;28;20036;-66
2022/01/31 03:03:08;;;;;;;127.77;48.60;;;-2.90;99.90;;;;;;5087235;28;20035;-66
2022/01/31 03:05:34;;;;;;;123.80;52.50;;;-2.90;99.90;;;;;;5103017;28;20032;-66
2022/01/31 03:08:01;;;;;;;118.03;51.77;;;-2.80;99.90;;;;;;5086719;28;20641;-65
2022/01/31 03:10:27;;;;;;;153.93;60.90;;;-2.60;99.90;;;;;;5107793;28;20031;-66
2022/01/31 03:13:15;;;;;;;130.93;55.10;;;-2.70;99.90;;;;;;5091765;28;20613;-66
2022/01/31 03:15:41;;;;;;;126.60;55.97;;;-2.60;99.90;;;;;;5104433;27;20062;-65
2022/01/31 03:18:08;;;;;;;143.70;57.80;;;-2.60;99.90;;;;;;5084370;28;20028;-66
2022/01/31 03:20:34;;;;;;;133.67;57.20;;;-2.50;99.90;;;;;;5106619;28;20023;-68
2022/01/31 03:23:06;;;;;;;148.03;59.83;;;-2.60;99.90;;;;;;5103747;28;20030;-66
2022/01/31 03:25:33;;;;;;;150.20;58.53;;;-2.50;99.90;;;;;;5112265;28;20459;-67
2022/01/31 03:28:00;;;;;;;135.87;56.57;;;-2.70;99.90;;;;;;5111542;28;20038;-66
2022/01/31 03:30:26;;;;;;;137.97;58.47;;;-2.70;99.90;;;;;;5105936;28;20077;-66
2022/01/31 03:33:04;;;;;;;145.33;60.33;;;-2.50;99.90;;;;;;5104795;28;20047;-70
2022/01/31 03:35:31;;;;;;;141.53;60.90;;;-2.40;99.90;;;;;;5092424;28;20102;-68
2022/01/31 03:37:57;;;;;;;165.20;66.67;;;-2.40;99.90;;;;;;5106432;27;20016;-68
2022/01/31 03:40:23;;;;;;;156.00;65.00;;;-2.30;99.90;;;;;;5109049;28;20145;-68
2022/01/31 03:43:17;;;;;;;161.93;62.80;;;-2.40;99.90;;;;;;5104565;28;20379;-68
2022/01/31 03:45:43;;;;;;;153.77;66.57;;;-2.50;99.90;;;;;;5105863;28;20028;-67
2022/01/31 03:48:10;;;;;;;182.00;72.83;;;-2.50;99.90;;;;;;5085634;28;20028;-67
2022/01/31 03:50:36;;;;;;;152.00;62.80;;;-2.60;99.90;;;;;;5107793;28;20509;-67
2022/01/31 03:53:02;;;;;;;153.50;69.07;;;-2.70;99.90;;;;;;5104142;28;20097;-67
2022/01/31 03:55:29;;;;;;;158.67;64.77;;;-2.70;99.90;;;;;;5068835;28;20035;-68
2022/01/31 03:57:57;;;;;;;164.23;67.30;;;-2.40;99.90;;;;;;5104135;28;20103;-68
2022/01/31 04:00:25;;;;;;;158.10;67.50;;;-2.10;99.90;;;;;;5088100;28;20023;-68
2022/01/31 04:02:51;;;;;;;157.10;66.20;;;-2.10;99.90;;;;;;5104089;28;20019;-68
2022/01/31 04:05:17;;;;;;;146.97;62.93;;;-2.00;99.90;;;;;;5101009;28;20065;-68
2022/01/31 04:07:43;;;;;;;161.83;63.20;;;-2.10;99.90;;;;;;5087375;28;20097;-68
2022/01/31 04:10:10;;;;;;;147.47;63.70;;;-2.00;99.90;;;;;;5105070;28;20031;-68
2022/01/31 04:12:36;;;;;;;149.97;60.87;;;-1.80;99.90;;;;;;5105393;28;20030;-69
2022/01/31 04:15:03;;;;;;;157.83;64.80;;;-1.80;99.90;;;;;;5108386;28;20036;-67
2022/01/31 04:17:31;;;;;;;152.47;62.30;;;-1.90;99.90;;;;;;5104413;28;20111;-69
2022/01/31 04:19:58;;;;;;;143.37;64.07;;;-2.00;99.90;;;;;;5103091;28;20024;-68
2022/01/31 04:22:27;;;;;;;143.97;63.00;;;-2.20;99.90;;;;;;5106905;28;20027;-66
2022/01/31 04:25:43;;;;;;;148.60;65.43;;;-2.10;99.90;;;;;;5104537;28;20084;-68
2022/01/31 04:28:22;;;;;;;161.97;66.37;;;-1.90;99.90;;;;;;5102340;28;20027;-67
2022/01/31 04:31:24;;;;;;;153.87;65.67;;;-1.70;99.90;;;;;;5104417;28;20019;-67
2022/01/31 04:33:38;;;;;;;153.83;66.20;;;-1.60;99.90;;;;;;5104478;28;20074;-68
2022/01/31 04:36:05;;;;;;;146.30;64.83;;;-1.70;99.90;;;;;;5084487;28;20532;-68
2022/01/31 04:38:31;;;;;;;152.07;65.93;;;-1.80;99.90;;;;;;5086455;28;20412;-68
2022/01/31 04:41:07;;;;;;;147.60;63.57;;;-1.80;99.90;;;;;;5098121;28;20467;-67
2022/01/31 04:43:33;;;;;;;153.97;68.33;;;-1.70;99.90;;;;;;5082406;28;20088;-69
2022/01/31 04:46:02;;;;;;;153.00;68.40;;;-1.60;99.90;;;;;;5100055;28;20113;-69
2022/01/31 04:48:28;;;;;;;142.63;66.30;;;-1.50;99.90;;;;;;5099855;28;20051;-67
2022/01/31 04:50:55;;;;;;;164.37;69.67;;;-1.40;99.90;;;;;;5100383;28;20042;-69
2022/01/31 04:53:21;;;;;;;155.67;69.70;;;-1.40;99.90;;;;;;5098451;28;20032;-69
2022/01/31 04:55:47;;;;;;;151.07;69.47;;;-1.40;99.90;;;;;;5103092;28;20032;-68
2022/01/31 04:58:14;;;;;;;171.90;74.00;;;-1.30;99.90;;;;;;5097627;28;20107;-68
2022/01/31 05:00:40;;;;;;;177.53;77.63;;;-1.70;99.90;;;;;;5106475;28;20027;-69
2022/01/31 05:03:15;;;;;;;150.67;69.53;;;-2.00;99.90;;;;;;5083932;28;20032;-68
2022/01/31 05:05:43;;;;;;;164.13;71.70;;;-2.00;99.90;;;;;;5102077;28;20024;-70
2022/01/31 05:08:10;;;;;;;163.40;71.37;;;-1.90;99.90;;;;;;5103232;28;20208;-68
2022/01/31 05:10:42;;;;;;;160.07;73.73;;;-1.80;99.90;;;;;;5082326;28;20433;-69
2022/01/31 05:13:09;;;;;;;166.83;77.03;;;-1.80;99.90;;;;;;5103701;28;20082;-67
2022/01/31 05:15:36;;;;;;;175.03;75.13;;;-1.80;99.90;;;;;;5101850;28;20046;-68
2022/01/31 05:18:02;;;;;;;177.73;76.50;;;-1.80;99.90;;;;;;5099335;28;20059;-69
2022/01/31 05:20:28;;;;;;;191.63;85.80;;;-1.60;99.90;;;;;;5103033;28;20436;-67
2022/01/31 05:22:54;;;;;;;205.43;88.47;;;-1.70;99.90;;;;;;5106475;28;20460;-69
2022/01/31 05:25:20;;;;;;;213.50;93.43;;;-1.90;99.90;;;;;;5105138;28;20020;-69
2022/01/31 05:27:46;;;;;;;190.67;83.23;;;-1.90;99.90;;;;;;5086309;28;20047;-70
2022/01/31 05:30:12;;;;;;;180.97;80.03;;;-1.80;99.90;;;;;;5106718;28;20024;-70
2022/01/31 05:32:39;;;;;;;189.60;83.10;;;-1.60;99.90;;;;;;5108853;28;20094;-70
2022/01/31 05:35:05;;;;;;;187.83;83.70;;;-1.50;99.90;;;;;;5109104;28;20107;-68
2022/01/31 05:37:32;;;;;;;184.07;80.40;;;-1.50;99.90;;;;;;5106896;28;20074;-68
2022/01/31 05:39:58;;;;;;;185.43;82.30;;;-1.60;99.90;;;;;;5087441;28;20115;-70
2022/01/31 05:42:27;;;;;;;192.87;85.53;;;-1.50;99.90;;;;;;5105568;28;20456;-69
2022/01/31 05:44:53;;;;;;;189.17;82.43;;;-1.70;99.90;;;;;;5104336;28;20684;-71
2022/01/31 05:47:19;;;;;;;177.67;84.07;;;-1.70;99.90;;;;;;5108495;28;20341;-70
2022/01/31 05:49:46;;;;;;;186.47;84.33;;;-1.60;99.90;;;;;;5106010;28;20032;-69
2022/01/31 05:52:12;;;;;;;185.33;82.57;;;-1.60;99.90;;;;;;5106275;28;20088;-69
2022/01/31 05:54:40;;;;;;;200.83;86.17;;;-1.30;99.90;;;;;;5086709;28;20386;-69
2022/01/31 05:57:07;;;;;;;211.07;91.40;;;-1.10;99.90;;;;;;5086326;28;20470;-69
2022/01/31 05:59:39;;;;;;;201.97;92.13;;;-0.80;99.90;;;;;;5105227;28;20636;-69
2022/01/31 06:02:06;;;;;;;192.60;91.00;;;-0.70;99.90;;;;;;5086776;28;20082;-68
2022/01/31 06:04:54;;;;;;;203.33;92.30;;;-0.60;99.90;;;;;;5105977;28;20583;-69
2022/01/31 06:07:20;;;;;;;234.30;101.60;;;-0.30;99.90;;;;;;5077258;28;20051;-71
2022/01/31 06:09:55;;;;;;;220.17;98.87;;;-0.50;99.90;;;;;;5108191;28;20081;-70
2022/01/31 06:12:22;;;;;;;218.43;100.23;;;-0.50;99.90;;;;;;5108460;27;20039;-70
2022/01/31 06:14:48;;;;;;;225.23;98.67;;;-1.00;99.90;;;;;;5105949;28;20048;-68
2022/01/31 06:17:14;;;;;;;221.57;94.30;;;-1.10;99.90;;;;;;5107344;28;20464;-69
2022/01/31 06:19:40;;;;;;;240.13;100.47;;;-1.20;99.90;;;;;;5107965;28;20038;-68
2022/01/31 06:22:07;;;;;;;224.50;97.00;;;-1.10;99.90;;;;;;5107284;28;20091;-69
2022/01/31 06:24:33;;;;;;;225.33;95.67;;;-0.90;99.90;;;;;;5106717;28;20053;-69
2022/01/31 06:26:59;;;;;;;249.03;101.83;;;-1.30;99.90;;;;;;5105570;28;20129;-69
2022/01/31 06:29:26;;;;;;;231.07;95.57;;;-1.40;99.90;;;;;;5104614;28;21521;-68
2022/01/31 06:31:53;;;;;;;245.43;98.70;;;-1.30;99.90;;;;;;5102718;28;20107;-68
2022/01/31 06:34:19;;;;;;;233.40;98.43;;;-0.90;99.90;;;;;;5106628;28;20023;-69
2022/01/31 06:36:45;;;;;;;219.80;97.40;;;-0.90;99.90;;;;;;5106240;28;20315;-70
2022/01/31 06:39:12;;;;;;;239.17;98.87;;;-0.80;99.90;;;;;;5110020;28;20031;-69
2022/01/31 06:41:38;;;;;;;235.20;99.73;;;-0.90;99.90;;;;;;5105990;28;20023;-69
2022/01/31 06:44:04;;;;;;;222.47;97.67;;;-0.80;99.90;;;;;;5109444;28;20031;-68
2022/01/31 06:46:30;;;;;;;220.83;94.50;;;-0.50;99.90;;;;;;5107935;28;20031;-69
2022/01/31 06:48:56;;;;;;;223.15;98.38;;;-0.20;99.90;;;;;;5108217;28;20055;-70
2022/01/31 06:51:23;;;;;;;220.67;95.83;;;-0.10;99.90;;;;;;5090538;28;20114;-69
2022/01/31 06:53:51;;;;;;;240.77;101.03;;;0.10;99.90;;;;;;5090161;28;20030;-71
2022/01/31 06:56:18;;;;;;;222.10;100.28;;;0.00;99.90;;;;;;5081643;28;20043;-69
2022/01/31 06:58:44;;;;;;;226.02;100.80;;;-0.10;99.90;;;;;;5103953;28;20028;-69
2022/01/31 07:01:11;;;;;;;218.98;101.07;;;0.00;99.90;;;;;;5109804;28;20041;-69
2022/01/31 07:03:39;;;;;;;232.40;102.38;;;0.00;99.90;;;;;;5100783;28;20130;-68
2022/01/31 07:06:06;;;;;;;235.35;100.90;;;0.00;99.90;;;;;;5099374;28;20298;-69
2022/01/31 07:08:32;;;;;;;209.13;99.20;;;0.20;99.90;;;;;;5105487;27;20049;-69
2022/01/31 07:10:58;;;;;;;232.20;105.95;;;0.40;99.90;;;;;;5106911;28;20032;-69
2022/01/31 07:13:36;;;;;;;226.20;101.18;;;0.50;99.90;;;;;;5109105;28;20055;-68
2022/01/31 07:16:05;;;;;;;217.40;101.43;;;0.50;99.90;;;;;;5105332;28;20116;-69
2022/01/31 07:18:33;;;;;;;220.77;100.72;;;0.30;99.90;;;;;;5103806;28;20024;-69
2022/01/31 07:20:59;;;;;;;215.05;101.80;;;0.40;99.90;;;;;;5108419;28;20027;-70
2022/01/31 07:23:39;;;;;;;230.52;103.13;;;0.50;99.90;;;;;;5105425;28;20024;-69
2022/01/31 07:26:05;;;;;;;221.95;100.45;;;0.30;99.90;;;;;;5107426;28;20028;-68
2022/01/31 07:28:31;;;;;;;223.10;102.10;;;0.40;99.90;;;;;;5105814;28;20035;-69
2022/01/31 07:30:58;;;;;;;230.57;103.63;;;0.50;99.90;;;;;;5104720;28;20031;-70
2022/01/31 07:33:24;;;;;;;232.40;104.95;;;0.00;99.90;;;;;;5088436;28;20030;-70
2022/01/31 07:35:51;;;;;;;232.00;99.05;;;0.10;99.90;;;;;;5086517;28;20033;-68
2022/01/31 07:38:18;;;;;;;228.77;103.07;;;0.50;99.90;;;;;;5106625;28;20038;-70
2022/01/31 07:40:45;;;;;;;218.50;102.57;;;0.50;99.90;;;;;;5090767;28;20392;-70
2022/01/31 07:43:12;;;;;;;220.18;99.97;;;0.60;99.90;;;;;;5111338;28;20028;-70
2022/01/31 07:45:38;;;;;;;214.13;101.78;;;0.70;99.90;;;;;;5108537;28;20040;-67
2022/01/31 07:48:05;;;;;;;224.00;100.65;;;0.90;99.90;;;;;;5108717;28;20023;-69
2022/01/31 07:50:32;;;;;;;231.65;103.85;;;0.90;99.90;;;;;;5106889;28;20035;-72
2022/01/31 07:52:58;;;;;;;227.38;103.72;;;0.70;99.90;;;;;;5109210;28;20035;-69
2022/01/31 07:55:25;;;;;;;227.05;104.25;;;0.80;99.90;;;;;;5090348;28;20023;-68
2022/01/31 07:57:51;;;;;;;214.52;101.28;;;0.50;99.90;;;;;;5087276;28;20027;-69
2022/01/31 08:00:17;;;;;;;217.23;102.00;;;0.60;99.90;;;;;;5107575;28;20034;-67
2022/01/31 08:02:44;;;;;;;228.60;105.72;;;0.50;99.90;;;;;;5086737;28;20119;-67
2022/01/31 08:05:11;;;;;;;233.02;106.25;;;0.40;99.90;;;;;;5109021;28;20028;-68
2022/01/31 08:07:37;;;;;;;225.93;107.72;;;0.40;99.90;;;;;;5103160;28;20475;-68
2022/01/31 08:10:05;;;;;;;216.05;99.97;;;0.10;99.90;;;;;;5104122;28;20076;-69
2022/01/31 08:12:34;;;;;;;217.93;105.03;;;0.00;99.90;;;;;;5107997;27;20098;-69
2022/01/31 08:15:07;;;;;;;209.18;99.90;;;0.00;99.90;;;;;;5102588;28;20368;-68
2022/01/31 08:17:33;;;;;;;209.52;100.55;;;-0.10;99.90;;;;;;5088417;28;20034;-68
2022/01/31 08:19:59;;;;;;;209.13;97.13;;;0.00;99.90;;;;;;5085294;28;20324;-68
2022/01/31 08:22:25;;;;;;;218.35;102.35;;;-0.20;99.90;;;;;;5107360;28;20080;-69
2022/01/31 08:24:51;;;;;;;197.43;95.85;;;-0.10;99.90;;;;;;5103464;28;20031;-68
2022/01/31 08:27:18;;;;;;;211.05;100.82;;;0.10;99.90;;;;;;5106050;28;20027;-68
2022/01/31 08:29:44;;;;;;;214.88;101.05;;;-0.10;99.90;;;;;;5105202;28;20019;-69
2022/01/31 08:32:33;;;;;;;188.48;95.82;;;-0.20;99.90;;;;;;5105354;28;20431;-67
2022/01/31 08:37:44;;;;;;;213.68;100.65;;;0.20;99.90;;;;;;5106217;28;20077;-67
2022/01/31 08:40:11;;;;;;;218.93;104.15;;;0.20;99.90;;;;;;5089231;28;20084;-67
2022/01/31 08:42:39;;;;;;;226.68;106.53;;;0.10;99.90;;;;;;5087501;28;20129;-68
2022/01/31 08:45:06;;;;;;;233.30;107.97;;;0.00;99.90;;;;;;5090134;28;20031;-69
2022/01/31 08:47:32;;;;;;;250.38;113.72;;;0.10;99.90;;;;;;5102398;28;20081;-69
2022/01/31 08:50:01;;;;;;;248.20;117.97;;;0.20;99.90;;;;;;5106535;28;20111;-69
2022/01/31 08:52:27;;;;;;;251.20;119.85;;;0.20;99.90;;;;;;5089452;28;20031;-69
2022/01/31 08:54:53;;;;;;;245.30;120.80;;;0.20;99.90;;;;;;5112524;28;20024;-68
2022/01/31 08:57:20;;;;;;;253.48;123.60;;;0.20;99.90;;;;;;5112823;28;20437;-69
2022/01/31 08:59:50;;;;;;;264.83;129.45;;;0.10;99.90;;;;;;5090733;28;20059;-68
2022/01/31 09:02:18;;;;;;;264.42;130.88;;;-0.10;99.90;;;;;;5107895;28;20475;-68
2022/01/31 09:04:47;;;;;;;281.70;132.65;;;-0.10;99.90;;;;;;5113073;28;20028;-68
2022/01/31 09:07:19;;;;;;;275.27;135.93;;;-0.10;99.90;;;;;;5110047;28;20097;-67
2022/01/31 09:09:50;;;;;;;270.75;132.27;;;-0.10;99.90;;;;;;5107991;28;20039;-68
2022/01/31 09:12:17;;;;;;;267.55;128.02;;;-0.10;99.90;;;;;;5093337;28;20077;-67
2022/01/31 09:14:44;;;;;;;266.95;128.95;;;-0.10;99.90;;;;;;5107563;28;20043;-68
2022/01/31 09:17:10;;;;;;;259.95;126.50;;;-0.10;99.90;;;;;;5107206;28;20031;-68
2022/01/31 09:19:40;;;;;;;265.52;128.35;;;0.00;99.90;;;;;;5105033;28;20070;-68
2022/01/31 09:22:09;;;;;;;246.65;122.43;;;-0.10;99.90;;;;;;5111031;28;20024;-67
2022/01/31 09:24:38;;;;;;;249.95;125.10;;;-0.20;99.90;;;;;;5109390;28;20032;-68
2022/01/31 09:27:10;;;;;;;249.20;119.57;;;-0.30;99.90;;;;;;5107390;28;20030;-67
2022/01/31 09:29:37;;;;;;;246.82;116.78;;;-0.30;99.90;;;;;;5110546;28;20027;-68
2022/01/31 09:32:04;;;;;;;239.77;117.22;;;-0.30;99.90;;;;;;5111122;28;20631;-67
2022/01/31 09:34:31;;;;;;;231.55;113.35;;;-0.40;99.90;;;;;;5112942;28;20050;-65
2022/01/31 09:37:04;;;;;;;238.80;114.78;;;-0.30;99.90;;;;;;5107523;28;20058;-68
2022/01/31 09:39:31;;;;;;;234.35;114.40;;;-0.40;99.90;;;;;;5112013;28;20102;-66
2022/01/31 09:41:58;;;;;;;230.20;111.40;;;-0.50;99.90;;;;;;5106657;28;20020;-69
2022/01/31 09:44:40;;;;;;;236.65;115.07;;;-0.40;99.90;;;;;;5087635;28;20036;-67
2022/01/31 09:49:47;;;;;;;213.35;105.18;;;-0.20;99.90;;;;;;5106723;28;20483;-68
2022/01/31 09:52:13;;;;;;;192.20;98.90;;;-0.10;99.90;;;;;;5113197;28;20028;-68
2022/01/31 09:54:39;;;;;;;190.38;93.45;;;0.00;99.90;;;;;;5095299;28;20024;-66
2022/01/31 09:57:06;;;;;;;176.50;87.32;;;-0.30;99.90;;;;;;5094272;28;20031;-67
2022/01/31 09:59:32;;;;;;;179.97;92.10;;;-0.30;99.90;;;;;;5092253;28;20028;-66
2022/01/31 10:01:59;;;;;;;176.35;90.70;;;-0.40;99.90;;;;;;5087868;28;20039;-66
2022/01/31 10:04:35;;;;;;;154.80;80.68;;;-0.50;99.90;;;;;;5111842;28;20068;-67
2022/01/31 10:07:03;;;;;;;152.30;80.05;;;-0.50;99.90;;;;;;5111053;28;20529;-68
2022/01/31 10:09:32;;;;;;;153.98;78.22;;;-0.60;99.90;;;;;;5111315;28;20031;-66
2022/01/31 10:12:07;;;;;;;144.50;78.38;;;-0.70;99.90;;;;;;5108915;28;20103;-65
2022/01/31 10:17:44;;;;;;;171.25;87.55;;;-0.60;99.90;;;;;;5108738;28;20054;-67
2022/01/31 10:20:30;;;;;;;183.88;95.53;;;-0.60;99.90;;;;;;5084178;28;20513;-66
2022/01/31 10:23:09;;;;;;;182.80;95.35;;;-0.50;99.90;;;;;;5111575;28;20072;-67
2022/01/31 10:25:35;;;;;;;190.75;98.07;;;-0.60;99.90;;;;;;5093100;28;20035;-66
2022/01/31 10:28:10;;;;;;;195.73;100.17;;;-0.60;99.90;;;;;;5114106;28;20020;-67
2022/01/31 10:30:37;;;;;;;181.85;94.85;;;-0.60;99.90;;;;;;5094677;28;20032;-66
2022/01/31 10:33:09;;;;;;;195.93;98.47;;;-0.70;99.90;;;;;;5113247;28;20454;-64
2022/01/31 10:35:36;;;;;;;210.25;102.78;;;-0.50;99.90;;;;;;5106436;28;20054;-67
2022/01/31 10:38:11;;;;;;;210.55;105.47;;;-0.40;99.90;;;;;;5108935;28;20028;-67
2022/01/31 10:46:32;;;;;;;216.48;106.38;;;-0.60;99.90;;;;;;5105911;28;20032;-67
2022/01/31 10:51:58;;;;;;;228.82;110.80;;;-0.70;99.90;;;;;;5108771;28;20403;-65
2022/01/31 10:57:06;;;;;;;220.30;106.63;;;-0.70;99.90;;;;;;5113406;28;20028;-66
2022/01/31 10:59:33;;;;;;;207.85;98.88;;;-0.90;99.90;;;;;;5111139;28;20036;-67
2022/01/31 11:02:02;;;;;;;213.23;100.17;;;-0.90;99.90;;;;;;5110976;28;20039;-67
2022/01/31 11:04:34;;;;;;;202.43;95.97;;;-0.80;99.90;;;;;;5108355;28;20073;-64
2022/01/31 11:07:07;;;;;;;206.33;101.63;;;-0.80;99.90;;;;;;5112832;28;20077;-68
2022/01/31 11:09:33;;;;;;;190.20;97.97;;;-0.80;99.90;;;;;;5106988;28;20024;-65
2022/01/31 11:12:01;;;;;;;190.10;95.23;;;-0.90;99.90;;;;;;5108713;28;20506;-67
2022/01/31 11:14:28;;;;;;;187.23;90.77;;;-1.00;99.90;;;;;;5109335;28;20429;-67
2022/01/31 11:16:55;;;;;;;173.87;86.73;;;-0.90;99.90;;;;;;5103449;28;20036;-66
2022/01/31 11:19:33;;;;;;;184.90;93.87;;;-0.90;99.90;;;;;;5112481;28;20019;-67
2022/01/31 11:22:04;;;;;;;190.50;92.67;;;-1.00;99.90;;;;;;5104517;28;20483;-65
2022/01/31 11:24:43;;;;;;;179.03;91.77;;;-0.90;99.90;;;;;;5091972;28;20082;-65
2022/01/31 11:27:12;;;;;;;182.67;91.93;;;-1.00;99.90;;;;;;5112209;28;20058;-67
2022/01/31 11:29:46;;;;;;;175.50;88.37;;;-1.00;99.90;;;;;;5111207;28;20072;-67
2022/01/31 11:32:13;;;;;;;191.60;92.97;;;-1.00;99.90;;;;;;5110533;28;20027;-66
2022/01/31 12:59:10;;;;;;;181.80;86.03;;;-1.60;99.90;;;;;;5050559;28;20066;-67
2022/01/31 13:01:39;;;;;;;199.37;89.30;;;-1.60;99.90;;;;;;5032410;28;20132;-67
2022/01/31 13:04:27;;;;;;;196.30;91.07;;;-1.60;99.90;;;;;;5043041;28;20108;-67
2022/01/31 13:06:59;;;;;;;176.13;82.73;;;-1.50;99.90;;;;;;5050566;28;20041;-66
2022/01/31 13:10:06;;;;;;;194.33;89.43;;;-1.40;99.90;;;;;;5032904;28;20370;-66
2022/01/31 13:12:32;;;;;;;215.83;99.33;;;-1.50;99.90;;;;;;5045439;28;20504;-65
2022/01/31 13:14:58;;;;;;;188.20;90.33;;;-1.40;99.90;;;;;;5038157;28;20026;-66
2022/01/31 13:17:26;;;;;;;182.03;89.00;;;-1.40;99.90;;;;;;5025542;28;20392;-65
2022/01/31 13:20:00;;;;;;;196.77;97.63;;;-1.50;99.90;;;;;;5039287;28;20039;-66
2022/01/31 13:22:34;;;;;;;203.97;94.53;;;-1.40;99.90;;;;;;5047811;28;20037;-65
2022/01/31 13:25:04;;;;;;;195.23;94.63;;;-1.30;99.90;;;;;;5042555;28;20117;-67
2022/01/31 13:27:41;;;;;;;203.80;96.53;;;-1.30;99.90;;;;;;5024286;28;20059;-65
2022/01/31 13:30:15;;;;;;;193.47;93.93;;;-1.30;99.90;;;;;;5040803;28;20409;-66
2022/01/31 13:32:41;;;;;;;198.83;93.97;;;-1.20;99.90;;;;;;5024931;28;20022;-66
2022/01/31 13:35:09;;;;;;;194.33;92.83;;;-1.30;99.90;;;;;;5040469;28;20336;-67
2022/01/31 13:37:50;;;;;;;208.70;98.53;;;-1.30;99.90;;;;;;5041150;28;20069;-66
2022/01/31 13:40:37;;;;;;;206.17;96.73;;;-1.50;99.90;;;;;;5029938;28;20057;-66
2022/01/31 13:43:15;;;;;;;219.63;103.50;;;-1.50;99.90;;;;;;5046285;28;20396;-66
2022/01/31 13:50:46;;;;;;;222.50;104.90;;;-1.80;99.90;;;;;;5043169;28;20025;-66
2022/01/31 13:53:20;;;;;;;227.63;103.97;;;-1.80;99.90;;;;;;5044126;28;20377;-67
2022/01/31 13:55:49;;;;;;;228.53;107.30;;;-1.90;99.90;;;;;;5034376;28;20396;-67
2022/01/31 13:58:27;;;;;;;221.40;108.20;;;-1.70;99.90;;;;;;5035766;28;20057;-67
2022/01/31 14:00:54;;;;;;;230.73;111.17;;;-1.80;99.90;;;;;;5031453;28;20425;-67
2022/01/31 14:03:21;;;;;;;237.10;113.17;;;-1.80;99.90;;;;;;5043936;28;20512;-67
2022/01/31 14:05:52;;;;;;;262.90;121.83;;;-2.00;99.90;;;;;;5051875;28;20037;-65
2022/01/31 14:08:23;;;;;;;245.77;114.23;;;-2.00;99.90;;;;;;5035453;28;20032;-66
2022/01/31 14:10:49;;;;;;;263.00;118.97;;;-2.00;99.90;;;;;;5036081;28;20041;-65
2022/01/31 14:13:16;;;;;;;260.77;119.07;;;-2.20;99.90;;;;;;5054249;28;20377;-66